createdAt,value
2023-03-21T00:00:05.297Z,2.10
2023-03-21T00:00:16.351Z,2.20
2023-03-21T00:00:27.308Z,2.20
2023-03-21T00:00:38.069Z,2.00
2023-03-21T00:00:49.115Z,2.00
2023-03-21T00:01:00.125Z,2.20
2023-03-21T00:01:10.889Z,2.10
2023-03-21T00:01:21.930Z,2.00
2023-03-21T00:01:32.895Z,2.00
2023-03-21T00:01:43.665Z,2.00
2023-03-21T00:01:54.749Z,2.10
2023-03-21T00:02:05.721Z,2.10
2023-03-21T00:02:16.507Z,2.00
2023-03-21T00:02:27.584Z,2.10
2023-03-21T00:02:38.574Z,2.10
2023-03-21T00:02:49.331Z,2.30
2023-03-21T00:03:00.372Z,2.40
2023-03-21T00:03:11.325Z,2.30
2023-03-21T00:03:22.135Z,2.20
2023-03-21T00:03:33.241Z,2.20
2023-03-21T00:03:44.189Z,2.20
2023-03-21T00:03:55.097Z,2.30
2023-03-21T00:04:05.650Z,2.50
2023-03-21T00:04:16.169Z,2.40
2023-03-21T00:04:28.405Z,2.20
2023-03-21T00:04:50.386Z,2.10
2023-03-21T00:04:53.571Z,2.00
2023-03-21T00:05:09.409Z,2.00
2023-03-21T00:05:15.785Z,2.10
2023-03-21T00:05:21.651Z,2.10
2023-03-21T00:05:32.432Z,2.00
2023-03-21T00:05:43.067Z,2.00
2023-03-21T00:05:53.639Z,2.00
2023-03-21T00:06:04.623Z,2.10
2023-03-21T00:06:15.639Z,2.20
2023-03-21T00:06:26.613Z,2.20
2023-03-21T00:06:37.374Z,2.20
2023-03-21T00:06:48.427Z,2.00
2023-03-21T00:06:59.400Z,2.10
2023-03-21T00:07:10.172Z,2.10
2023-03-21T00:07:21.202Z,2.00
2023-03-21T00:07:32.168Z,2.10
2023-03-21T00:07:42.963Z,2.00
2023-03-21T00:07:54.011Z,2.00
2023-03-21T00:08:04.973Z,2.00
2023-03-21T00:08:15.755Z,2.00
2023-03-21T00:08:26.807Z,1.90
2023-03-21T00:08:37.771Z,1.80
2023-03-21T00:08:48.551Z,1.90
2023-03-21T00:08:59.600Z,2.00
2023-03-21T00:09:10.575Z,2.00
2023-03-21T00:09:21.354Z,2.00
2023-03-21T00:09:32.382Z,1.90
2023-03-21T00:09:43.351Z,1.80
2023-03-21T00:09:57.007Z,1.90
2023-03-21T00:10:15.432Z,2.10
2023-03-21T00:10:26.738Z,2.20
2023-03-21T00:10:39.898Z,2.20
2023-03-21T00:10:43.923Z,2.20
2023-03-21T00:10:49.853Z,2.20
2023-03-21T00:10:59.470Z,2.00
2023-03-21T00:11:10.494Z,2.00
2023-03-21T00:11:21.455Z,2.20
2023-03-21T00:11:32.237Z,2.30
2023-03-21T00:11:43.272Z,2.20
2023-03-21T00:11:54.236Z,2.00
2023-03-21T00:12:05.003Z,2.10
2023-03-21T00:12:16.050Z,2.10
2023-03-21T00:12:27.019Z,2.10
2023-03-21T00:12:37.807Z,2.10
2023-03-21T00:12:48.856Z,2.10
2023-03-21T00:12:59.826Z,2.10
2023-03-21T00:13:10.594Z,2.20
2023-03-21T00:13:21.649Z,2.10
2023-03-21T00:13:32.923Z,2.20
2023-03-21T00:13:43.275Z,2.10
2023-03-21T00:13:54.344Z,2.20
2023-03-21T00:14:05.312Z,2.00
2023-03-21T00:14:16.100Z,2.20
2023-03-21T00:14:26.721Z,2.20
2023-03-21T00:14:37.793Z,2.30
2023-03-21T00:14:48.571Z,2.30
2023-03-21T00:14:59.626Z,2.40
2023-03-21T00:15:10.651Z,2.50
2023-03-21T00:15:24.890Z,2.40
2023-03-21T00:15:42.579Z,2.10
2023-03-21T00:15:54.076Z,2.20
2023-03-21T00:16:13.486Z,2.50
2023-03-21T00:16:17.027Z,2.30
2023-03-21T00:16:24.143Z,2.20
2023-03-21T00:16:28.973Z,2.10
2023-03-21T00:16:39.837Z,2.00
2023-03-21T00:16:48.887Z,2.10
2023-03-21T00:16:59.754Z,2.10
2023-03-21T00:17:10.813Z,2.00
2023-03-21T00:17:21.350Z,2.10
2023-03-21T00:17:32.120Z,2.20
2023-03-21T00:17:43.160Z,2.10
2023-03-21T00:17:54.140Z,2.00
2023-03-21T00:18:04.942Z,1.90
2023-03-21T00:18:15.969Z,1.90
2023-03-21T00:18:26.940Z,1.90
2023-03-21T00:18:37.709Z,2.10
2023-03-21T00:18:48.824Z,2.10
2023-03-21T00:18:59.747Z,2.10
2023-03-21T00:19:10.511Z,2.10
2023-03-21T00:19:21.560Z,2.00
2023-03-21T00:19:32.529Z,1.90
2023-03-21T00:19:43.298Z,1.90
2023-03-21T00:19:54.341Z,2.00
2023-03-21T00:20:05.319Z,1.90
2023-03-21T00:20:16.087Z,2.00
2023-03-21T00:20:27.123Z,2.00
2023-03-21T00:20:38.090Z,2.20
2023-03-21T00:20:48.862Z,2.00
2023-03-21T00:21:29.320Z,2.00
2023-03-21T00:21:40.948Z,2.00
2023-03-21T00:21:46.548Z,2.00
2023-03-21T00:22:06.891Z,2.00
2023-03-21T00:22:17.361Z,2.20
2023-03-21T00:22:26.957Z,2.40
2023-03-21T00:22:38.008Z,2.20
2023-03-21T00:22:48.975Z,2.10
2023-03-21T00:22:59.752Z,2.20
2023-03-21T00:23:10.809Z,2.20
2023-03-21T00:23:21.778Z,2.00
2023-03-21T00:23:32.557Z,1.80
2023-03-21T00:23:43.605Z,1.80
2023-03-21T00:23:54.585Z,2.00
2023-03-21T00:24:05.339Z,2.10
2023-03-21T00:24:16.391Z,2.10
2023-03-21T00:24:27.352Z,1.90
2023-03-21T00:24:38.127Z,1.90
2023-03-21T00:24:49.170Z,1.90
2023-03-21T00:25:00.131Z,1.80
2023-03-21T00:25:10.936Z,1.90
2023-03-21T00:25:21.971Z,1.90
2023-03-21T00:25:32.966Z,2.00
2023-03-21T00:25:43.706Z,2.10
2023-03-21T00:25:54.753Z,2.10
2023-03-21T00:26:05.716Z,2.10
2023-03-21T00:26:16.517Z,2.10
2023-03-21T00:26:27.578Z,2.10
2023-03-21T00:26:38.504Z,2.00
2023-03-21T00:26:49.281Z,1.80
2023-03-21T00:27:26.343Z,2.00
2023-03-21T00:27:44.810Z,2.10
2023-03-21T00:27:45.224Z,2.00
2023-03-21T00:27:53.238Z,1.90
2023-03-21T00:28:00.986Z,1.80
2023-03-21T00:28:08.572Z,2.00
2023-03-21T00:28:16.457Z,2.10
2023-03-21T00:28:27.219Z,2.20
2023-03-21T00:28:38.274Z,2.20
2023-03-21T00:28:49.241Z,2.10
2023-03-21T00:29:00.008Z,2.00
2023-03-21T00:29:11.072Z,1.90
2023-03-21T00:29:22.033Z,2.00
2023-03-21T00:29:32.803Z,2.30
2023-03-21T00:29:43.847Z,2.30
2023-03-21T00:29:54.820Z,2.30
2023-03-21T00:30:05.591Z,2.10
2023-03-21T00:30:16.636Z,1.90
2023-03-21T00:30:27.600Z,1.90
2023-03-21T00:30:38.370Z,1.90
2023-03-21T00:30:49.419Z,1.90
2023-03-21T00:31:00.383Z,1.90
2023-03-21T00:31:11.152Z,2.00
2023-03-21T00:31:22.200Z,2.10
2023-03-21T00:31:33.168Z,2.00
2023-03-21T00:31:43.948Z,1.90
2023-03-21T00:31:54.981Z,1.80
2023-03-21T00:32:05.951Z,2.00
2023-03-21T00:32:16.731Z,2.00
2023-03-21T00:32:27.791Z,2.00
2023-03-21T00:32:49.267Z,2.10
2023-03-21T00:32:56.493Z,2.10
2023-03-21T00:33:12.149Z,1.90
2023-03-21T00:33:22.387Z,1.80
2023-03-21T00:33:23.458Z,1.80
2023-03-21T00:33:33.422Z,1.90
2023-03-21T00:33:44.402Z,2.00
2023-03-21T00:33:55.166Z,2.10
2023-03-21T00:34:06.214Z,2.10
2023-03-21T00:34:22.586Z,2.10
2023-03-21T00:34:36.885Z,2.20
2023-03-21T00:34:43.115Z,2.10
2023-03-21T00:35:01.492Z,1.90
2023-03-21T00:35:29.475Z,2.20
2023-03-21T00:35:45.353Z,2.30
2023-03-21T00:35:57.447Z,2.30
2023-03-21T00:35:58.027Z,2.10
2023-03-21T00:35:58.720Z,2.00
2023-03-21T00:36:05.221Z,2.10
2023-03-21T00:36:07.226Z,2.10
2023-03-21T00:36:17.194Z,2.10
2023-03-21T00:36:28.188Z,2.30
2023-03-21T00:36:39.025Z,2.30
2023-03-21T00:36:50.095Z,2.30
2023-03-21T00:37:01.026Z,2.10
2023-03-21T00:37:11.796Z,2.10
2023-03-21T00:37:22.837Z,2.00
2023-03-21T00:37:33.820Z,2.00
2023-03-21T00:37:44.590Z,1.90
2023-03-21T00:37:55.636Z,2.00
2023-03-21T00:38:06.605Z,1.80
2023-03-21T00:38:17.386Z,1.90
2023-03-21T00:38:28.431Z,1.80
2023-03-21T00:38:39.411Z,1.90
2023-03-21T00:38:50.181Z,2.10
2023-03-21T00:39:00.746Z,2.20
2023-03-21T00:39:11.709Z,2.10
2023-03-21T00:39:22.472Z,2.20
2023-03-21T00:39:33.520Z,2.10
2023-03-21T00:39:44.503Z,2.00
2023-03-21T00:39:55.306Z,2.10
2023-03-21T00:40:08.654Z,2.10
2023-03-21T00:40:26.550Z,2.20
2023-03-21T00:40:35.083Z,2.20
2023-03-21T00:40:48.725Z,2.40
2023-03-21T00:40:50.915Z,2.20
2023-03-21T00:41:04.572Z,2.20
2023-03-21T00:41:23.378Z,2.00
2023-03-21T00:41:41.029Z,2.10
2023-03-21T00:41:42.437Z,2.10
2023-03-21T00:41:45.434Z,2.10
2023-03-21T00:41:55.338Z,2.10
2023-03-21T00:42:06.113Z,2.00
2023-03-21T00:42:17.176Z,2.00
2023-03-21T00:42:28.128Z,2.10
2023-03-21T00:42:38.896Z,2.20
2023-03-21T00:42:49.952Z,2.30
2023-03-21T00:43:00.932Z,2.30
2023-03-21T00:43:11.714Z,2.20
2023-03-21T00:43:22.777Z,2.00
2023-03-21T00:43:33.746Z,1.90
2023-03-21T00:43:44.509Z,1.80
2023-03-21T00:43:55.872Z,1.90
2023-03-21T00:44:06.270Z,1.90
2023-03-21T00:44:17.148Z,2.00
2023-03-21T00:44:27.616Z,2.10
2023-03-21T00:44:38.586Z,2.00
2023-03-21T00:44:49.358Z,2.00
2023-03-21T00:44:59.902Z,2.00
2023-03-21T00:45:10.876Z,2.20
2023-03-21T00:45:21.648Z,2.20
2023-03-21T00:45:32.690Z,2.20
2023-03-21T00:45:43.665Z,2.10
2023-03-21T00:45:54.450Z,2.40
2023-03-21T00:46:05.486Z,2.40
2023-03-21T00:46:16.460Z,2.30
2023-03-21T00:46:30.113Z,2.20
2023-03-21T00:46:47.301Z,2.30
2023-03-21T00:47:04.529Z,2.10
2023-03-21T00:47:07.686Z,2.00
2023-03-21T00:47:12.173Z,1.90
2023-03-21T00:47:24.131Z,2.00
2023-03-21T00:47:32.932Z,2.00
2023-03-21T00:47:44.043Z,2.10
2023-03-21T00:47:55.159Z,2.20
2023-03-21T00:48:06.081Z,2.20
2023-03-21T00:48:16.639Z,2.30
2023-03-21T00:48:27.633Z,2.40
2023-03-21T00:48:38.406Z,2.40
2023-03-21T00:48:49.445Z,2.30
2023-03-21T00:49:00.420Z,2.30
2023-03-21T00:49:11.196Z,2.40
2023-03-21T00:49:22.235Z,2.10
2023-03-21T00:49:33.203Z,2.00
2023-03-21T00:49:43.978Z,1.90
2023-03-21T00:49:55.035Z,2.20
2023-03-21T00:50:06.000Z,2.30
2023-03-21T00:50:16.775Z,2.30
2023-03-21T00:50:27.826Z,2.10
2023-03-21T00:50:38.790Z,1.90
2023-03-21T00:50:49.560Z,2.10
2023-03-21T00:51:00.624Z,2.20
2023-03-21T00:51:11.579Z,2.20
2023-03-21T00:51:22.351Z,2.10
2023-03-21T00:51:33.398Z,2.10
2023-03-21T00:51:44.384Z,2.20
2023-03-21T00:51:57.346Z,2.10
2023-03-21T00:52:15.216Z,2.10
2023-03-21T00:52:24.775Z,2.10
2023-03-21T00:52:40.092Z,2.30
2023-03-21T00:52:41.292Z,2.20
2023-03-21T00:52:49.177Z,2.30
2023-03-21T00:52:59.943Z,2.30
2023-03-21T00:53:10.992Z,2.20
2023-03-21T00:53:21.959Z,2.20
2023-03-21T00:53:32.741Z,2.10
2023-03-21T00:53:43.801Z,2.10
2023-03-21T00:53:54.764Z,2.30
2023-03-21T00:54:05.572Z,2.40
2023-03-21T00:54:16.596Z,2.20
2023-03-21T00:54:27.572Z,2.10
2023-03-21T00:54:38.339Z,2.00
2023-03-21T00:54:49.383Z,2.10
2023-03-21T00:55:00.375Z,2.10
2023-03-21T00:55:11.117Z,2.20
2023-03-21T00:55:22.172Z,2.10
2023-03-21T00:55:33.141Z,2.00
2023-03-21T00:55:43.913Z,2.10
2023-03-21T00:55:54.965Z,2.10
2023-03-21T00:56:05.930Z,2.10
2023-03-21T00:56:16.703Z,2.10
2023-03-21T00:56:27.758Z,2.00
2023-03-21T00:56:38.720Z,2.10
2023-03-21T00:56:49.493Z,2.10
2023-03-21T00:57:00.537Z,2.20
2023-03-21T00:57:11.512Z,2.20
2023-03-21T00:57:37.583Z,2.40
2023-03-21T00:57:39.237Z,2.30
2023-03-21T00:57:47.451Z,2.40
2023-03-21T00:58:01.872Z,2.50
2023-03-21T00:58:07.064Z,2.50
2023-03-21T00:58:16.950Z,2.40
2023-03-21T00:58:27.712Z,2.30
2023-03-21T00:58:38.768Z,2.10
2023-03-21T00:58:49.735Z,2.10
2023-03-21T00:59:00.508Z,2.20
2023-03-21T00:59:11.563Z,2.30
2023-03-21T00:59:22.529Z,2.30
2023-03-21T00:59:33.298Z,2.30
2023-03-21T00:59:44.348Z,2.20
2023-03-21T00:59:55.314Z,2.30
2023-03-21T01:00:06.089Z,2.40
2023-03-21T01:00:17.152Z,2.30
2023-03-21T01:00:28.162Z,2.10
2023-03-21T01:00:38.918Z,2.00
2023-03-21T01:00:49.943Z,2.20
2023-03-21T01:01:00.957Z,2.50
2023-03-21T01:01:11.693Z,2.70
2023-03-21T01:01:22.723Z,2.40
2023-03-21T01:01:33.811Z,2.20
2023-03-21T01:01:44.588Z,2.00
2023-03-21T01:01:55.642Z,2.30
2023-03-21T01:02:06.611Z,2.40
2023-03-21T01:02:17.444Z,2.40
2023-03-21T01:02:28.070Z,2.50
2023-03-21T01:02:38.999Z,2.30
2023-03-21T01:02:54.786Z,2.40
2023-03-21T01:03:11.110Z,2.30
2023-03-21T01:03:23.676Z,2.50
2023-03-21T01:03:25.512Z,2.50
2023-03-21T01:03:33.395Z,2.50
2023-03-21T01:03:44.370Z,2.50
2023-03-21T01:03:55.145Z,2.60
2023-03-21T01:04:06.193Z,2.50
2023-03-21T01:04:17.269Z,2.40
2023-03-21T01:04:27.972Z,2.30
2023-03-21T01:04:39.041Z,2.30
2023-03-21T01:04:49.984Z,2.30
2023-03-21T01:05:00.759Z,2.40
2023-03-21T01:05:11.816Z,2.40
2023-03-21T01:05:22.774Z,2.40
2023-03-21T01:05:33.553Z,2.40
2023-03-21T01:05:44.599Z,2.40
2023-03-21T01:05:55.562Z,2.50
2023-03-21T01:06:06.340Z,2.80
2023-03-21T01:06:17.392Z,2.70
2023-03-21T01:06:28.355Z,2.40
2023-03-21T01:06:39.127Z,2.50
2023-03-21T01:06:50.167Z,2.80
2023-03-21T01:07:01.132Z,2.80
2023-03-21T01:07:11.913Z,2.70
2023-03-21T01:07:22.956Z,2.50
2023-03-21T01:07:33.918Z,2.50
2023-03-21T01:07:44.696Z,2.40
2023-03-21T01:07:55.733Z,2.40
2023-03-21T01:08:20.695Z,2.40
2023-03-21T01:08:26.657Z,2.50
2023-03-21T01:08:38.150Z,2.50
2023-03-21T01:08:51.829Z,2.40
2023-03-21T01:08:53.252Z,2.20
2023-03-21T01:09:01.432Z,2.30
2023-03-21T01:09:12.370Z,2.30
2023-03-21T01:09:23.148Z,2.40
2023-03-21T01:09:34.194Z,2.50
2023-03-21T01:09:45.161Z,2.50
2023-03-21T01:09:55.933Z,2.50
2023-03-21T01:10:06.976Z,2.30
2023-03-21T01:10:17.948Z,2.30
2023-03-21T01:10:28.712Z,2.40
2023-03-21T01:10:39.768Z,2.60
2023-03-21T01:10:50.724Z,2.60
2023-03-21T01:11:01.494Z,2.60
2023-03-21T01:11:12.540Z,2.30
2023-03-21T01:11:23.613Z,2.40
2023-03-21T01:11:34.353Z,2.40
2023-03-21T01:11:45.393Z,2.40
2023-03-21T01:11:56.362Z,2.40
2023-03-21T01:12:07.125Z,2.20
2023-03-21T01:12:18.174Z,2.20
2023-03-21T01:12:29.140Z,2.20
2023-03-21T01:12:39.911Z,2.40
2023-03-21T01:12:50.968Z,2.40
2023-03-21T01:13:01.933Z,2.40
2023-03-21T01:13:12.710Z,2.40
2023-03-21T01:13:23.761Z,2.40
2023-03-21T01:13:36.453Z,2.40
2023-03-21T01:13:53.769Z,2.40
2023-03-21T01:14:10.745Z,2.40
2023-03-21T01:14:21.486Z,2.40
2023-03-21T01:14:23.023Z,2.60
2023-03-21T01:14:29.045Z,2.60
2023-03-21T01:14:40.010Z,2.60
2023-03-21T01:14:50.777Z,2.60
2023-03-21T01:15:01.846Z,2.60
2023-03-21T01:15:12.806Z,2.70
2023-03-21T01:15:23.583Z,2.70
2023-03-21T01:15:34.766Z,2.70
2023-03-21T01:15:45.206Z,2.60
2023-03-21T01:15:56.007Z,2.50
2023-03-21T01:16:07.081Z,2.50
2023-03-21T01:16:18.063Z,2.50
2023-03-21T01:16:28.953Z,2.40
2023-03-21T01:16:39.418Z,2.50
2023-03-21T01:16:50.416Z,2.50
2023-03-21T01:17:01.173Z,2.80
2023-03-21T01:17:12.244Z,2.70
2023-03-21T01:17:23.194Z,2.80
2023-03-21T01:17:33.961Z,2.40
2023-03-21T01:17:45.011Z,2.50
2023-03-21T01:17:55.973Z,2.70
2023-03-21T01:18:06.742Z,2.80
2023-03-21T01:18:17.802Z,2.60
2023-03-21T01:18:28.813Z,2.60
2023-03-21T01:18:39.537Z,2.50
2023-03-21T01:18:50.599Z,2.70
2023-03-21T01:19:04.821Z,2.70
2023-03-21T01:19:23.916Z,2.80
2023-03-21T01:19:29.032Z,2.70
2023-03-21T01:19:50.842Z,2.80
2023-03-21T01:19:51.908Z,2.70
2023-03-21T01:19:56.964Z,2.90
2023-03-21T01:20:06.853Z,2.70
2023-03-21T01:20:17.658Z,2.90
2023-03-21T01:20:28.694Z,3.00
2023-03-21T01:20:39.656Z,2.70
2023-03-21T01:20:50.432Z,2.70
2023-03-21T01:21:01.481Z,2.70
2023-03-21T01:21:12.452Z,2.70
2023-03-21T01:21:23.217Z,2.80
2023-03-21T01:21:34.267Z,2.80
2023-03-21T01:21:45.237Z,2.90
2023-03-21T01:21:56.016Z,2.70
2023-03-21T01:22:07.046Z,2.70
2023-03-21T01:22:18.019Z,2.70
2023-03-21T01:22:28.790Z,2.60
2023-03-21T01:22:39.829Z,2.60
2023-03-21T01:22:50.800Z,2.40
2023-03-21T01:23:01.578Z,2.80
2023-03-21T01:23:12.621Z,2.90
2023-03-21T01:23:23.614Z,2.90
2023-03-21T01:23:34.357Z,2.90
2023-03-21T01:23:45.422Z,3.00
2023-03-21T01:23:56.390Z,2.80
2023-03-21T01:24:07.164Z,2.70
2023-03-21T01:24:18.218Z,2.50
2023-03-21T01:24:29.183Z,2.60
2023-03-21T01:24:50.254Z,2.50
2023-03-21T01:24:58.580Z,2.80
2023-03-21T01:25:21.278Z,2.80
2023-03-21T01:25:22.425Z,2.80
2023-03-21T01:25:24.737Z,2.70
2023-03-21T01:25:34.626Z,2.60
2023-03-21T01:25:45.401Z,2.50
2023-03-21T01:25:56.452Z,2.70
2023-03-21T01:26:07.426Z,2.80
2023-03-21T01:26:18.188Z,2.80
2023-03-21T01:26:29.238Z,2.90
2023-03-21T01:26:40.212Z,3.00
2023-03-21T01:26:50.971Z,3.10
2023-03-21T01:27:02.020Z,3.10
2023-03-21T01:27:12.986Z,2.80
2023-03-21T01:27:23.756Z,2.70
2023-03-21T01:27:34.803Z,2.60
2023-03-21T01:27:45.777Z,2.60
2023-03-21T01:27:56.539Z,2.60
2023-03-21T01:28:07.582Z,2.70
2023-03-21T01:28:18.553Z,2.50
2023-03-21T01:28:29.323Z,2.30
2023-03-21T01:28:40.368Z,2.40
2023-03-21T01:28:51.338Z,2.70
2023-03-21T01:29:02.110Z,2.80
2023-03-21T01:29:13.202Z,2.80
2023-03-21T01:29:24.150Z,2.70
2023-03-21T01:29:34.921Z,2.80
2023-03-21T01:29:45.994Z,2.90
2023-03-21T01:29:56.994Z,3.00
2023-03-21T01:30:17.366Z,2.90
2023-03-21T01:30:23.910Z,2.80
2023-03-21T01:30:33.919Z,2.80
2023-03-21T01:30:42.215Z,2.80
2023-03-21T01:30:51.598Z,2.80
2023-03-21T01:31:02.580Z,2.90
2023-03-21T01:31:13.359Z,2.80
2023-03-21T01:31:24.423Z,2.80
2023-03-21T01:31:35.367Z,2.70
2023-03-21T01:31:46.164Z,2.80
2023-03-21T01:31:57.182Z,2.90
2023-03-21T01:32:08.152Z,3.00
2023-03-21T01:32:18.925Z,2.90
2023-03-21T01:32:29.965Z,2.80
2023-03-21T01:32:40.939Z,2.70
2023-03-21T01:32:51.710Z,2.70
2023-03-21T01:33:02.771Z,2.90
2023-03-21T01:33:13.725Z,2.90
2023-03-21T01:33:24.501Z,3.00
2023-03-21T01:33:35.564Z,3.00
2023-03-21T01:33:46.516Z,3.00
2023-03-21T01:33:57.288Z,3.00
2023-03-21T01:34:08.325Z,3.10
2023-03-21T01:34:19.308Z,3.00
2023-03-21T01:34:30.064Z,3.00
2023-03-21T01:34:41.111Z,2.90
2023-03-21T01:34:52.078Z,2.80
2023-03-21T01:35:02.879Z,2.80
2023-03-21T01:35:13.916Z,2.80
2023-03-21T01:35:25.041Z,2.90
2023-03-21T01:35:48.016Z,2.80
2023-03-21T01:35:53.390Z,2.80
2023-03-21T01:36:10.345Z,2.70
2023-03-21T01:36:13.025Z,2.70
2023-03-21T01:36:22.632Z,2.60
2023-03-21T01:36:30.474Z,2.70
2023-03-21T01:36:41.259Z,2.70
2023-03-21T01:36:52.275Z,2.70
2023-03-21T01:37:03.301Z,2.70
2023-03-21T01:37:14.049Z,2.70
2023-03-21T01:37:25.093Z,2.80
2023-03-21T01:37:36.067Z,2.70
2023-03-21T01:37:46.843Z,2.80
2023-03-21T01:37:57.892Z,2.90
2023-03-21T01:38:08.858Z,2.90
2023-03-21T01:38:19.637Z,2.70
2023-03-21T01:38:30.683Z,2.90
2023-03-21T01:38:41.737Z,2.80
2023-03-21T01:38:52.480Z,2.70
2023-03-21T01:39:03.497Z,2.60
2023-03-21T01:39:14.468Z,2.60
2023-03-21T01:39:25.256Z,2.80
2023-03-21T01:39:36.309Z,2.80
2023-03-21T01:39:47.280Z,2.60
2023-03-21T01:39:58.066Z,2.50
2023-03-21T01:40:09.107Z,2.60
2023-03-21T01:40:20.075Z,2.60
2023-03-21T01:40:30.855Z,2.60
2023-03-21T01:40:41.889Z,2.40
2023-03-21T01:40:52.853Z,2.40
2023-03-21T01:41:08.606Z,2.60
2023-03-21T01:41:19.898Z,2.70
2023-03-21T01:41:33.542Z,2.40
2023-03-21T01:41:43.099Z,2.40
2023-03-21T01:41:48.189Z,2.40
2023-03-21T01:41:58.079Z,2.50
2023-03-21T01:42:08.863Z,2.60
2023-03-21T01:42:19.927Z,2.70
2023-03-21T01:42:30.879Z,2.70
2023-03-21T01:42:41.656Z,2.60
2023-03-21T01:42:52.749Z,2.70
2023-03-21T01:43:03.705Z,2.50
2023-03-21T01:43:14.470Z,2.60
2023-03-21T01:43:25.526Z,2.50
2023-03-21T01:43:36.522Z,2.60
2023-03-21T01:43:47.326Z,2.70
2023-03-21T01:43:58.349Z,2.50
2023-03-21T01:44:09.316Z,2.40
2023-03-21T01:44:20.086Z,2.50
2023-03-21T01:44:31.142Z,2.60
2023-03-21T01:44:42.106Z,2.50
2023-03-21T01:44:52.892Z,2.50
2023-03-21T01:45:03.446Z,2.50
2023-03-21T01:45:14.406Z,2.90
2023-03-21T01:45:25.261Z,3.00
2023-03-21T01:45:36.096Z,3.10
2023-03-21T01:45:46.591Z,2.80
2023-03-21T01:45:57.358Z,2.50
2023-03-21T01:46:07.938Z,2.40
2023-03-21T01:46:18.934Z,2.30
2023-03-21T01:46:32.338Z,2.50
2023-03-21T01:46:51.828Z,2.50
2023-03-21T01:47:10.939Z,2.70
2023-03-21T01:47:11.542Z,2.60
2023-03-21T01:47:14.439Z,2.80
2023-03-21T01:47:24.337Z,2.70
2023-03-21T01:47:35.117Z,2.60
2023-03-21T01:47:46.220Z,2.40
2023-03-21T01:47:57.162Z,2.40
2023-03-21T01:48:07.996Z,2.40
2023-03-21T01:48:18.553Z,2.70
2023-03-21T01:48:29.502Z,2.80
2023-03-21T01:48:40.312Z,2.90
2023-03-21T01:48:51.317Z,3.30
2023-03-21T01:49:02.286Z,3.40
2023-03-21T01:49:13.075Z,2.90
2023-03-21T01:49:24.102Z,2.80
2023-03-21T01:49:35.085Z,2.50
2023-03-21T01:49:46.278Z,2.50
2023-03-21T01:49:56.435Z,2.40
2023-03-21T01:50:07.419Z,2.40
2023-03-21T01:50:18.189Z,2.70
2023-03-21T01:50:29.239Z,3.00
2023-03-21T01:50:40.202Z,3.00
2023-03-21T01:50:50.971Z,2.80
2023-03-21T01:51:02.021Z,2.90
2023-03-21T01:51:12.984Z,2.80
2023-03-21T01:51:23.762Z,2.60
2023-03-21T01:51:34.819Z,2.30
2023-03-21T01:51:45.781Z,2.50
2023-03-21T01:51:58.678Z,2.60
2023-03-21T01:52:14.033Z,2.60
2023-03-21T01:52:33.503Z,2.80
2023-03-21T01:52:37.124Z,2.80
2023-03-21T01:52:40.912Z,2.80
2023-03-21T01:52:50.807Z,2.60
2023-03-21T01:53:01.574Z,2.60
2023-03-21T01:53:12.625Z,2.80
2023-03-21T01:53:23.601Z,2.80
2023-03-21T01:53:34.361Z,3.00
2023-03-21T01:53:45.403Z,2.80
2023-03-21T01:53:56.369Z,2.90
2023-03-21T01:54:07.136Z,2.60
2023-03-21T01:54:18.182Z,2.80
2023-03-21T01:54:29.155Z,2.70
2023-03-21T01:54:39.938Z,2.50
2023-03-21T01:54:50.985Z,2.50
2023-03-21T01:55:01.961Z,2.70
2023-03-21T01:55:12.788Z,2.90
2023-03-21T01:55:23.792Z,2.90
2023-03-21T01:55:34.795Z,3.10
2023-03-21T01:55:45.548Z,2.90
2023-03-21T01:55:56.566Z,2.90
2023-03-21T01:56:07.536Z,2.70
2023-03-21T01:56:18.303Z,2.90
2023-03-21T01:56:29.350Z,2.80
2023-03-21T01:56:40.316Z,2.70
2023-03-21T01:56:51.089Z,2.60
2023-03-21T01:57:02.133Z,2.70
2023-03-21T01:57:13.099Z,2.70
2023-03-21T01:57:25.882Z,2.70
2023-03-21T01:57:43.597Z,2.70
2023-03-21T01:57:58.436Z,2.70
2023-03-21T01:58:05.847Z,2.80
2023-03-21T01:58:08.731Z,2.90
2023-03-21T01:58:18.639Z,2.80
2023-03-21T01:58:29.389Z,2.90
2023-03-21T01:58:40.434Z,2.80
2023-03-21T01:58:51.403Z,2.70
2023-03-21T01:59:02.171Z,2.70
2023-03-21T01:59:13.225Z,2.70
2023-03-21T01:59:24.197Z,3.00
2023-03-21T01:59:34.978Z,2.80
2023-03-21T01:59:46.041Z,2.90
2023-03-21T01:59:57.000Z,2.70
2023-03-21T02:00:07.766Z,2.50
2023-03-21T02:00:19.061Z,2.50
2023-03-21T02:00:29.538Z,2.60
2023-03-21T02:00:40.312Z,3.00
2023-03-21T02:00:51.424Z,3.00
2023-03-21T02:01:02.389Z,3.00
2023-03-21T02:01:13.174Z,2.60
2023-03-21T02:01:24.217Z,2.50
2023-03-21T02:01:35.136Z,2.50
2023-03-21T02:01:45.909Z,2.60
2023-03-21T02:01:56.950Z,2.80
2023-03-21T02:02:07.918Z,2.70
2023-03-21T02:02:18.692Z,2.80
2023-03-21T02:02:29.731Z,2.80
2023-03-21T02:02:40.695Z,2.70
2023-03-21T02:02:52.575Z,2.90
2023-03-21T02:03:11.715Z,2.90
2023-03-21T02:03:23.503Z,2.80
2023-03-21T02:03:35.346Z,2.80
2023-03-21T02:03:36.566Z,2.90
2023-03-21T02:03:46.049Z,2.90
2023-03-21T02:03:56.807Z,2.80
2023-03-21T02:04:07.871Z,2.80
2023-03-21T02:04:18.868Z,2.60
2023-03-21T02:04:29.696Z,2.50
2023-03-21T02:04:40.164Z,2.50
2023-03-21T02:04:51.313Z,2.70
2023-03-21T02:05:02.061Z,2.80
2023-03-21T02:05:13.116Z,2.80
2023-03-21T02:05:24.085Z,2.60
2023-03-21T02:05:35.152Z,2.50
2023-03-21T02:05:45.794Z,2.50
2023-03-21T02:05:56.764Z,2.80
2023-03-21T02:06:07.525Z,2.90
2023-03-21T02:06:18.574Z,2.80
2023-03-21T02:06:29.540Z,2.90
2023-03-21T02:06:40.309Z,2.90
2023-03-21T02:06:51.353Z,3.10
2023-03-21T02:07:02.321Z,3.00
2023-03-21T02:07:13.105Z,2.90
2023-03-21T02:07:24.138Z,2.70
2023-03-21T02:07:35.110Z,2.80
2023-03-21T02:07:45.873Z,2.80
2023-03-21T02:07:56.921Z,2.70
2023-03-21T02:08:07.892Z,2.70
2023-03-21T02:08:18.751Z,2.80
2023-03-21T02:08:38.824Z,3.00
2023-03-21T02:08:41.586Z,2.90
2023-03-21T02:08:51.180Z,3.00
2023-03-21T02:09:02.225Z,2.90
2023-03-21T02:09:13.199Z,2.60
2023-03-21T02:09:23.962Z,2.60
2023-03-21T02:09:35.021Z,2.70
2023-03-21T02:09:45.990Z,2.80
2023-03-21T02:09:56.767Z,2.70
2023-03-21T02:10:07.819Z,2.80
2023-03-21T02:10:18.804Z,2.90
2023-03-21T02:10:29.568Z,2.80
2023-03-21T02:10:40.602Z,2.70
2023-03-21T02:10:51.578Z,2.60
2023-03-21T02:11:02.350Z,2.80
2023-03-21T02:11:13.388Z,2.90
2023-03-21T02:11:24.356Z,2.80
2023-03-21T02:11:35.120Z,2.70
2023-03-21T02:11:46.165Z,2.70
2023-03-21T02:11:57.136Z,2.90
2023-03-21T02:12:07.902Z,2.70
2023-03-21T02:12:18.944Z,2.80
2023-03-21T02:12:29.924Z,2.80
2023-03-21T02:12:40.684Z,2.80
2023-03-21T02:12:51.731Z,2.80
2023-03-21T02:13:02.698Z,2.80
2023-03-21T02:13:13.476Z,3.00
2023-03-21T02:13:24.528Z,3.00
2023-03-21T02:13:35.488Z,2.90
2023-03-21T02:13:46.820Z,2.90
2023-03-21T02:14:06.131Z,3.00
2023-03-21T02:14:10.000Z,2.90
2023-03-21T02:14:28.338Z,2.70
2023-03-21T02:14:31.082Z,2.50
2023-03-21T02:14:40.971Z,2.40
2023-03-21T02:14:51.778Z,2.80
2023-03-21T02:15:02.822Z,2.70
2023-03-21T02:15:13.788Z,2.70
2023-03-21T02:15:24.633Z,2.60
2023-03-21T02:15:35.523Z,2.70
2023-03-21T02:15:46.020Z,2.70
2023-03-21T02:15:56.790Z,2.70
2023-03-21T02:16:07.837Z,2.70
2023-03-21T02:16:18.833Z,3.00
2023-03-21T02:16:29.625Z,2.90
2023-03-21T02:16:40.690Z,2.80
2023-03-21T02:16:51.629Z,2.70
2023-03-21T02:17:02.419Z,2.70
2023-03-21T02:17:13.421Z,2.80
2023-03-21T02:17:24.388Z,2.70
2023-03-21T02:17:35.188Z,2.70
2023-03-21T02:17:46.217Z,2.70
2023-03-21T02:17:57.193Z,2.80
2023-03-21T02:18:07.978Z,2.90
2023-03-21T02:18:19.016Z,2.70
2023-03-21T02:18:29.988Z,2.60
2023-03-21T02:18:40.755Z,2.70
2023-03-21T02:18:51.822Z,2.60
2023-03-21T02:19:02.771Z,2.80
2023-03-21T02:19:15.737Z,2.80
2023-03-21T02:19:32.016Z,2.70
2023-03-21T02:19:47.652Z,2.80
2023-03-21T02:19:53.178Z,2.70
2023-03-21T02:19:58.056Z,2.80
2023-03-21T02:20:07.959Z,2.70
2023-03-21T02:20:18.718Z,2.80
2023-03-21T02:20:29.777Z,2.80
2023-03-21T02:20:40.743Z,2.80
2023-03-21T02:20:51.507Z,2.80
2023-03-21T02:21:02.562Z,2.60
2023-03-21T02:21:13.536Z,2.50
2023-03-21T02:21:24.295Z,2.60
2023-03-21T02:21:35.353Z,2.70
2023-03-21T02:21:46.316Z,2.90
2023-03-21T02:21:57.088Z,2.90
2023-03-21T02:22:08.142Z,2.80
2023-03-21T02:22:19.100Z,2.90
2023-03-21T02:22:29.868Z,2.90
2023-03-21T02:22:40.914Z,2.80
2023-03-21T02:22:51.879Z,3.20
2023-03-21T02:23:02.646Z,3.20
2023-03-21T02:23:13.705Z,3.30
2023-03-21T02:23:24.688Z,2.90
2023-03-21T02:23:35.449Z,2.80
2023-03-21T02:23:46.509Z,2.70
2023-03-21T02:23:57.471Z,2.80
2023-03-21T02:24:08.237Z,2.90
2023-03-21T02:24:19.283Z,2.90
2023-03-21T02:24:30.254Z,2.70
2023-03-21T02:24:42.705Z,3.00
2023-03-21T02:24:59.633Z,3.00
2023-03-21T02:25:08.338Z,2.90
2023-03-21T02:25:21.849Z,2.60
2023-03-21T02:25:25.812Z,2.60
2023-03-21T02:25:35.793Z,2.80
2023-03-21T02:25:46.598Z,2.90
2023-03-21T02:25:57.656Z,2.80